sensor_id;sensor_type;location;lat;lon;timestamp;pressure;altitude;pressure_sealevel;temperature;humidity
72959;BME280;60008;50.826;6.896;2023-02-07T00:01:24;103349.75;;;0.46;100.00
72959;BME280;60008;50.826;6.896;2023-02-07T00:04:09;103346.13;;;0.53;100.00
72959;BME280;60008;50.826;6.896;2023-02-07T00:06:54;103351.41;;;0.50;100.00
72959;BME280;60008;50.826;6.896;2023-02-07T00:09:39;103355.94;;;0.42;100.00
72959;BME280;60008;50.826;6.896;2023-02-07T00:12:25;103367.03;;;0.52;100.00
72959;BME280;60008;50.826;6.896;2023-02-07T00:15:10;103367.19;;;0.44;100.00
72959;BME280;60008;50.826;6.896;2023-02-07T00:17:55;103367.34;;;0.37;100.00
72959;BME280;60008;50.826;6.896;2023-02-07T00:20:40;103364.03;;;0.29;100.00
72959;BME280;60008;50.826;6.896;2023-02-07T00:23:26;103363.22;;;0.25;100.00
72959;BME280;60008;50.826;6.896;2023-02-07T00:26:13;103351.16;;;0.21;100.00
72959;BME280;60008;50.826;6.896;2023-02-07T00:28:59;103352.03;;;0.20;100.00
72959;BME280;60008;50.826;6.896;2023-02-07T00:31:44;103340.47;;;0.33;100.00
72959;BME280;60008;50.826;6.896;2023-02-07T00:34:29;103335.22;;;0.35;100.00
72959;BME280;60008;50.826;6.896;2023-02-07T00:37:15;103336.91;;;0.37;100.00
72959;BME280;60008;50.826;6.896;2023-02-07T00:40:00;103337.78;;;0.38;100.00
72959;BME280;60008;50.826;6.896;2023-02-07T00:42:45;103340.50;;;0.32;100.00
72959;BME280;60008;50.826;6.896;2023-02-07T00:45:30;103338.94;;;0.23;100.00
72959;BME280;60008;50.826;6.896;2023-02-07T00:48:15;103334.81;;;0.12;100.00
72959;BME280;60008;50.826;6.896;2023-02-07T00:51:00;103335.84;;;0.05;100.00
72959;BME280;60008;50.826;6.896;2023-02-07T00:53:46;103340.91;;;0.12;100.00
72959;BME280;60008;50.826;6.896;2023-02-07T00:56:32;103346.16;;;0.09;100.00
72959;BME280;60008;50.826;6.896;2023-02-07T00:59:17;103354.03;;;0.06;100.00
72959;BME280;60008;50.826;6.896;2023-02-07T01:02:02;103349.91;;;-0.04;100.00
72959;BME280;60008;50.826;6.896;2023-02-07T01:04:47;103355.22;;;-0.09;100.00
72959;BME280;60008;50.826;6.896;2023-02-07T01:07:32;103357.09;;;-0.18;100.00
72959;BME280;60008;50.826;6.896;2023-02-07T01:10:18;103348.63;;;-0.28;100.00
72959;BME280;60008;50.826;6.896;2023-02-07T01:13:02;103332.75;;;-0.16;100.00
72959;BME280;60008;50.826;6.896;2023-02-07T01:15:48;103336.94;;;-0.07;100.00
72959;BME280;60008;50.826;6.896;2023-02-07T01:18:33;103324.91;;;-0.16;100.00
72959;BME280;60008;50.826;6.896;2023-02-07T01:21:22;103329.56;;;-0.31;100.00
72959;BME280;60008;50.826;6.896;2023-02-07T01:24:08;103340.06;;;-0.36;100.00
72959;BME280;60008;50.826;6.896;2023-02-07T01:26:53;103350.72;;;-0.49;100.00
72959;BME280;60008;50.826;6.896;2023-02-07T01:29:38;103349.94;;;-0.54;100.00
72959;BME280;60008;50.826;6.896;2023-02-07T01:32:24;103350.59;;;-0.43;100.00
72959;BME280;60008;50.826;6.896;2023-02-07T01:35:09;103357.13;;;-0.70;100.00
72959;BME280;60008;50.826;6.896;2023-02-07T01:37:54;103352.56;;;-0.54;100.00
72959;BME280;60008;50.826;6.896;2023-02-07T01:40:39;103357.72;;;-0.53;100.00
72959;BME280;60008;50.826;6.896;2023-02-07T01:43:24;103356.16;;;-0.63;100.00
72959;BME280;60008;50.826;6.896;2023-02-07T01:46:09;103341.38;;;-0.61;100.00
72959;BME280;60008;50.826;6.896;2023-02-07T01:48:57;103345.28;;;-0.88;100.00
72959;BME280;60008;50.826;6.896;2023-02-07T01:51:48;103342.50;;;-0.79;100.00
72959;BME280;60008;50.826;6.896;2023-02-07T01:54:36;103343.41;;;-0.81;100.00
72959;BME280;60008;50.826;6.896;2023-02-07T01:57:21;103335.56;;;-0.78;100.00
72959;BME280;60008;50.826;6.896;2023-02-07T02:00:07;103343.41;;;-0.81;100.00
72959;BME280;60008;50.826;6.896;2023-02-07T02:02:53;103343.47;;;-0.84;100.00
72959;BME280;60008;50.826;6.896;2023-02-07T02:05:40;103341.03;;;-0.93;100.00
72959;BME280;60008;50.826;6.896;2023-02-07T02:08:26;103335.81;;;-0.93;100.00
72959;BME280;60008;50.826;6.896;2023-02-07T02:11:29;103341.06;;;-0.96;100.00
72959;BME280;60008;50.826;6.896;2023-02-07T02:17:14;103341.09;;;-0.99;100.00
72959;BME280;60008;50.826;6.896;2023-02-07T02:20:18;103335.13;;;-1.06;100.00
72959;BME280;60008;50.826;6.896;2023-02-07T02:26:17;103340.13;;;-0.92;100.00
72959;BME280;60008;50.826;6.896;2023-02-07T02:29:30;103335.78;;;-0.92;100.00
72959;BME280;60008;50.826;6.896;2023-02-07T02:32:47;103339.13;;;-0.82;100.00
72959;BME280;60008;50.826;6.896;2023-02-07T02:35:56;103339.25;;;-0.90;100.00
72959;BME280;60008;50.826;6.896;2023-02-07T02:39:07;103334.69;;;-0.79;100.00
72959;BME280;60008;50.826;6.896;2023-02-07T02:41:57;103326.97;;;-0.82;100.00
72959;BME280;60008;50.826;6.896;2023-02-07T02:44:51;103335.81;;;-0.93;100.00
72959;BME280;60008;50.826;6.896;2023-02-07T02:47:41;103338.38;;;-0.92;100.00
72959;BME280;60008;50.826;6.896;2023-02-07T02:50:29;103333.34;;;-1.01;100.00
72959;BME280;60008;50.826;6.896;2023-02-07T02:53:14;103332.63;;;-1.13;100.00
72959;BME280;60008;50.826;6.896;2023-02-07T02:59:09;103334.25;;;-1.03;100.00
72959;BME280;60008;50.826;6.896;2023-02-07T03:05:06;103355.22;;;-1.15;100.00
72959;BME280;60008;50.826;6.896;2023-02-07T03:11:21;103338.78;;;-1.19;100.00
72959;BME280;60008;50.826;6.896;2023-02-07T03:14:25;103337.13;;;-1.23;100.00
72959;BME280;60008;50.826;6.896;2023-02-07T03:17:21;103325.94;;;-1.28;100.00
72959;BME280;60008;50.826;6.896;2023-02-07T03:20:30;103326.69;;;-1.22;100.00
72959;BME280;60008;50.826;6.896;2023-02-07T03:23:18;103322.38;;;-1.24;100.00
72959;BME280;60008;50.826;6.896;2023-02-07T03:26:05;103320.88;;;-1.39;100.00
72959;BME280;60008;50.826;6.896;2023-02-07T03:28:54;103321.72;;;-1.37;100.00
72959;BME280;60008;50.826;6.896;2023-02-07T03:31:43;103315.72;;;-1.42;100.00
72959;BME280;60008;50.826;6.896;2023-02-07T03:34:37;103304.41;;;-1.39;100.00
72959;BME280;60008;50.826;6.896;2023-02-07T03:37:30;103300.13;;;-1.43;100.00
72959;BME280;60008;50.826;6.896;2023-02-07T03:40:16;103294.06;;;-1.44;100.00
72959;BME280;60008;50.826;6.896;2023-02-07T03:43:10;103293.97;;;-1.38;100.00
72959;BME280;60008;50.826;6.896;2023-02-07T03:45:57;103295.84;;;-1.47;100.00
72959;BME280;60008;50.826;6.896;2023-02-07T03:48:42;103292.34;;;-1.45;100.00
72959;BME280;60008;50.826;6.896;2023-02-07T03:51:28;103298.47;;;-1.49;100.00
72959;BME280;60008;50.826;6.896;2023-02-07T03:54:13;103291.59;;;-1.54;100.00
72959;BME280;60008;50.826;6.896;2023-02-07T03:56:59;103302.03;;;-1.56;100.00
72959;BME280;60008;50.826;6.896;2023-02-07T03:59:43;103303.78;;;-1.56;100.00
72959;BME280;60008;50.826;6.896;2023-02-07T04:02:29;103306.44;;;-1.61;100.00
72959;BME280;60008;50.826;6.896;2023-02-07T04:05:14;103302.16;;;-1.63;100.00
72959;BME280;60008;50.826;6.896;2023-02-07T04:07:59;103306.50;;;-1.67;100.00
72959;BME280;60008;50.826;6.896;2023-02-07T04:10:44;103301.41;;;-1.74;100.00
72959;BME280;60008;50.826;6.896;2023-02-07T04:13:29;103302.97;;;-1.61;100.00
72959;BME280;60008;50.826;6.896;2023-02-07T04:16:15;103309.94;;;-1.65;100.00
72959;BME280;60008;50.826;6.896;2023-02-07T04:19:00;103307.31;;;-1.62;100.00
72959;BME280;60008;50.826;6.896;2023-02-07T04:21:45;103298.69;;;-1.65;100.00
72959;BME280;60008;50.826;6.896;2023-02-07T04:24:30;103295.28;;;-1.70;100.00
72959;BME280;60008;50.826;6.896;2023-02-07T04:27:16;103297.09;;;-1.74;100.00
72959;BME280;60008;50.826;6.896;2023-02-07T04:30:01;103295.34;;;-1.76;100.00
72959;BME280;60008;50.826;6.896;2023-02-07T04:32:46;103299.66;;;-1.72;100.00
72959;BME280;60008;50.826;6.896;2023-02-07T04:35:31;103303.22;;;-1.79;100.00
72959;BME280;60008;50.826;6.896;2023-02-07T04:38:16;103303.16;;;-1.76;100.00
72959;BME280;60008;50.826;6.896;2023-02-07T04:41:03;103305.78;;;-1.78;100.00
72959;BME280;60008;50.826;6.896;2023-02-07T04:43:48;103309.22;;;-1.76;100.00
72959;BME280;60008;50.826;6.896;2023-02-07T04:46:34;103301.41;;;-1.76;100.00
72959;BME280;60008;50.826;6.896;2023-02-07T04:49:19;103313.66;;;-1.83;100.00
72959;BME280;60008;50.826;6.896;2023-02-07T04:52:03;103304.03;;;-1.76;100.00
72959;BME280;60008;50.826;6.896;2023-02-07T04:54:49;103306.53;;;-1.70;100.00
72959;BME280;60008;50.826;6.896;2023-02-07T04:57:34;103297.81;;;-1.64;100.00
72959;BME280;60008;50.826;6.896;2023-02-07T05:00:19;103291.78;;;-1.66;100.00
72959;BME280;60008;50.826;6.896;2023-02-07T05:03:04;103297.91;;;-1.72;100.00
72959;BME280;60008;50.826;6.896;2023-02-07T05:05:51;103299.72;;;-1.77;100.00
72959;BME280;60008;50.826;6.896;2023-02-07T05:08:37;103293.69;;;-1.82;100.00
72959;BME280;60008;50.826;6.896;2023-02-07T05:11:22;103301.63;;;-1.93;100.00
72959;BME280;60008;50.826;6.896;2023-02-07T05:14:07;103293.78;;;-1.90;100.00
72959;BME280;60008;50.826;6.896;2023-02-07T05:16:52;103296.34;;;-1.87;100.00
72959;BME280;60008;50.826;6.896;2023-02-07T05:19:37;103298.03;;;-1.79;100.00
72959;BME280;60008;50.826;6.896;2023-02-07T05:22:22;103298.88;;;-1.82;100.00
72959;BME280;60008;50.826;6.896;2023-02-07T05:25:07;103303.25;;;-1.83;100.00
72959;BME280;60008;50.826;6.896;2023-02-07T05:27:53;103304.16;;;-1.85;100.00
72959;BME280;60008;50.826;6.896;2023-02-07T05:30:39;103303.25;;;-1.84;100.00
72959;BME280;60008;50.826;6.896;2023-02-07T05:33:24;103302.38;;;-1.85;100.00
72959;BME280;60008;50.826;6.896;2023-02-07T05:36:09;103308.47;;;-1.86;100.00
72959;BME280;60008;50.826;6.896;2023-02-07T05:38:53;103305.88;;;-1.86;100.00
72959;BME280;60008;50.826;6.896;2023-02-07T05:41:38;103299.81;;;-1.86;100.00
72959;BME280;60008;50.826;6.896;2023-02-07T05:44:23;103311.81;;;-1.76;100.00
72959;BME280;60008;50.826;6.896;2023-02-07T05:47:08;103302.34;;;-1.80;100.00
72959;BME280;60008;50.826;6.896;2023-02-07T05:49:53;103315.22;;;-1.71;100.00
72959;BME280;60008;50.826;6.896;2023-02-07T05:52:38;103307.47;;;-1.74;100.00
72959;BME280;60008;50.826;6.896;2023-02-07T05:55:23;103306.78;;;-1.90;100.00
72959;BME280;60008;50.826;6.896;2023-02-07T05:58:08;103311.06;;;-1.84;100.00
72959;BME280;60008;50.826;6.896;2023-02-07T06:00:54;103309.50;;;-2.00;100.00
72959;BME280;60008;50.826;6.896;2023-02-07T06:03:39;103317.22;;;-1.93;100.00
72959;BME280;60008;50.826;6.896;2023-02-07T06:06:25;103318.03;;;-1.89;100.00
72959;BME280;60008;50.826;6.896;2023-02-07T06:09:10;103325.03;;;-1.94;100.00
72959;BME280;60008;50.826;6.896;2023-02-07T06:11:55;103325.06;;;-1.97;100.00
72959;BME280;60008;50.826;6.896;2023-02-07T06:14:40;103338.97;;;-2.01;100.00
72959;BME280;60008;50.826;6.896;2023-02-07T06:17:25;103333.81;;;-2.04;100.00
72959;BME280;60008;50.826;6.896;2023-02-07T06:20:10;103342.50;;;-2.08;100.00
72959;BME280;60008;50.826;6.896;2023-02-07T06:22:55;103338.22;;;-2.09;100.00
72959;BME280;60008;50.826;6.896;2023-02-07T06:25:40;103349.34;;;-2.00;100.00
72959;BME280;60008;50.826;6.896;2023-02-07T06:28:25;103353.69;;;-1.99;100.00
72959;BME280;60008;50.826;6.896;2023-02-07T06:31:10;103350.22;;;-2.01;100.00
72959;BME280;60008;50.826;6.896;2023-02-07T06:33:55;103355.78;;;-2.38;100.00
72959;BME280;60008;50.826;6.896;2023-02-07T06:36:41;103359.03;;;-2.17;100.00
72959;BME280;60008;50.826;6.896;2023-02-07T06:39:26;103371.16;;;-2.17;100.00
72959;BME280;60008;50.826;6.896;2023-02-07T06:42:11;103365.13;;;-2.19;100.00
72959;BME280;60008;50.826;6.896;2023-02-07T06:44:56;103358.25;;;-2.25;100.00
72959;BME280;60008;50.826;6.896;2023-02-07T06:47:40;103370.28;;;-2.16;100.00
72959;BME280;60008;50.826;6.896;2023-02-07T06:50:26;103365.09;;;-2.16;100.00
72959;BME280;60008;50.826;6.896;2023-02-07T06:53:11;103370.16;;;-2.03;100.00
72959;BME280;60008;50.826;6.896;2023-02-07T06:55:56;103370.16;;;-2.03;100.00
72959;BME280;60008;50.826;6.896;2023-02-07T06:58:41;103370.09;;;-1.97;100.00
72959;BME280;60008;50.826;6.896;2023-02-07T07:01:26;103372.69;;;-1.97;100.00
72959;BME280;60008;50.826;6.896;2023-02-07T07:04:11;103373.63;;;-2.04;100.00
72959;BME280;60008;50.826;6.896;2023-02-07T07:06:56;103384.03;;;-2.05;100.00
72959;BME280;60008;50.826;6.896;2023-02-07T07:09:41;103376.19;;;-2.01;100.00
72959;BME280;60008;50.826;6.896;2023-02-07T07:12:26;103376.97;;;-1.93;100.00
72959;BME280;60008;50.826;6.896;2023-02-07T07:15:11;103374.47;;;-2.03;100.00
72959;BME280;60008;50.826;6.896;2023-02-07T07:17:56;103373.72;;;-2.14;100.00
72959;BME280;60008;50.826;6.896;2023-02-07T07:20:41;103383.09;;;-1.97;100.00
72959;BME280;60008;50.826;6.896;2023-02-07T07:23:26;103387.41;;;-1.94;100.00
72959;BME280;60008;50.826;6.896;2023-02-07T07:26:11;103397.75;;;-1.91;100.00
72959;BME280;60008;50.826;6.896;2023-02-07T07:28:56;103404.66;;;-1.90;100.00
72959;BME280;60008;50.826;6.896;2023-02-07T07:31:44;103398.44;;;-1.75;100.00
72959;BME280;60008;50.826;6.896;2023-02-07T07:34:29;103411.50;;;-1.82;100.00
72959;BME280;60008;50.826;6.896;2023-02-07T07:37:15;103409.78;;;-1.81;100.00
72959;BME280;60008;50.826;6.896;2023-02-07T07:40:00;103396.69;;;-1.73;100.00
72959;BME280;60008;50.826;6.896;2023-02-07T07:42:45;103398.34;;;-1.66;100.00
72959;BME280;60008;50.826;6.896;2023-02-07T07:45:30;103401.81;;;-1.66;100.00
72959;BME280;60008;50.826;6.896;2023-02-07T07:48:15;103406.09;;;-1.62;100.00
72959;BME280;60008;50.826;6.896;2023-02-07T07:51:00;103403.47;;;-1.59;100.00
72959;BME280;60008;50.826;6.896;2023-02-07T07:53:45;103409.50;;;-1.57;100.00
72959;BME280;60008;50.826;6.896;2023-02-07T07:56:30;103410.34;;;-1.55;100.00
72959;BME280;60008;50.826;6.896;2023-02-07T07:59:16;103410.28;;;-1.49;100.00
72959;BME280;60008;50.826;6.896;2023-02-07T08:02:13;103409.34;;;-1.42;100.00
72959;BME280;60008;50.826;6.896;2023-02-07T08:04:58;103409.22;;;-1.36;100.00
72959;BME280;60008;50.826;6.896;2023-02-07T08:07:43;103411.78;;;-1.30;100.00
72959;BME280;60008;50.826;6.896;2023-02-07T08:10:28;103411.72;;;-1.25;100.00
72959;BME280;60008;50.826;6.896;2023-02-07T08:13:13;103421.28;;;-1.27;100.00
72959;BME280;60008;50.826;6.896;2023-02-07T08:15:58;103419.44;;;-1.19;100.00
72959;BME280;60008;50.826;6.896;2023-02-07T08:18:43;103426.31;;;-1.15;100.00
72959;BME280;60008;50.826;6.896;2023-02-07T08:21:28;103427.06;;;-1.04;100.00
72959;BME280;60008;50.826;6.896;2023-02-07T08:24:13;103430.44;;;-1.00;100.00
72959;BME280;60008;50.826;6.896;2023-02-07T08:26:58;103426.22;;;-1.07;100.00
72959;BME280;60008;50.826;6.896;2023-02-07T08:29:43;103421.84;;;-1.05;100.00
72959;BME280;60008;50.826;6.896;2023-02-07T08:32:29;103416.59;;;-1.01;100.00
72959;BME280;60008;50.826;6.896;2023-02-07T08:35:14;103419.03;;;-0.89;100.00
72959;BME280;60008;50.826;6.896;2023-02-07T08:37:59;103421.34;;;-0.71;100.00
72959;BME280;60008;50.826;6.896;2023-02-07T08:40:44;103419.59;;;-0.69;100.00
72959;BME280;60008;50.826;6.896;2023-02-07T08:43:31;103428.25;;;-0.67;100.00
72959;BME280;60008;50.826;6.896;2023-02-07T08:46:16;103417.66;;;-0.54;100.00
72959;BME280;60008;50.826;6.896;2023-02-07T08:49:01;103417.50;;;-0.45;100.00
72959;BME280;60008;50.826;6.896;2023-02-07T08:51:46;103415.72;;;-0.42;100.00
72959;BME280;60008;50.826;6.896;2023-02-07T08:54:31;103418.22;;;-0.37;100.00
72959;BME280;60008;50.826;6.896;2023-02-07T08:57:16;103414.53;;;-0.23;100.00
72959;BME280;60008;50.826;6.896;2023-02-07T09:00:05;103400.47;;;-0.14;100.00
72959;BME280;60008;50.826;6.896;2023-02-07T09:02:51;103395.94;;;-0.05;100.00
72959;BME280;60008;50.826;6.896;2023-02-07T09:05:36;103402.75;;;0.04;100.00
72959;BME280;60008;50.826;6.896;2023-02-07T09:08:21;103409.66;;;0.08;100.00
72959;BME280;60008;50.826;6.896;2023-02-07T09:11:06;103401.88;;;0.04;100.00
72959;BME280;60008;50.826;6.896;2023-02-07T09:13:54;103403.47;;;0.12;100.00
72959;BME280;60008;50.826;6.896;2023-02-07T09:16:39;103409.41;;;0.20;100.00
72959;BME280;60008;50.826;6.896;2023-02-07T09:19:25;103406.13;;;0.11;100.00
72959;BME280;60008;50.826;6.896;2023-02-07T09:22:10;103412.81;;;0.22;100.00
72959;BME280;60008;50.826;6.896;2023-02-07T09:24:55;103399.50;;;0.37;100.00
72959;BME280;60008;50.826;6.896;2023-02-07T09:27:41;103389.75;;;0.47;100.00
72959;BME280;60008;50.826;6.896;2023-02-07T09:30:26;103392.06;;;0.62;100.00
72959;BME280;60008;50.826;6.896;2023-02-07T09:33:13;103382.84;;;0.86;100.00
72959;BME280;60008;50.826;6.896;2023-02-07T09:35:58;103384.00;;;0.73;100.00
72959;BME280;60008;50.826;6.896;2023-02-07T09:38:43;103382.03;;;0.82;100.00
72959;BME280;60008;50.826;6.896;2023-02-07T09:41:35;103380.91;;;0.94;100.00
72959;BME280;60008;50.826;6.896;2023-02-07T09:44:51;103380.66;;;1.04;100.00
72959;BME280;60008;50.826;6.896;2023-02-07T09:47:41;103363.03;;;2.15;100.00
72959;BME280;60008;50.826;6.896;2023-02-07T09:50:35;103355.34;;;4.27;100.00
72959;BME280;60008;50.826;6.896;2023-02-07T09:53:43;103350.53;;;5.69;100.00
72959;BME280;60008;50.826;6.896;2023-02-07T09:56:30;103353.06;;;4.64;100.00
72959;BME280;60008;50.826;6.896;2023-02-07T09:59:23;103354.00;;;5.06;100.00
72959;BME280;60008;50.826;6.896;2023-02-07T10:02:26;103351.88;;;5.37;100.00
72959;BME280;60008;50.826;6.896;2023-02-07T10:05:21;103350.22;;;5.35;100.00
72959;BME280;60008;50.826;6.896;2023-02-07T10:08:13;103358.31;;;4.64;100.00
72959;BME280;60008;50.826;6.896;2023-02-07T10:11:24;103356.63;;;3.66;100.00
72959;BME280;60008;50.826;6.896;2023-02-07T10:20:36;103351.09;;;4.46;100.00
72959;BME280;60008;50.826;6.896;2023-02-07T10:26:41;103345.63;;;3.56;100.00
72959;BME280;60008;50.826;6.896;2023-02-07T10:29:38;103344.13;;;5.55;100.00
72959;BME280;60008;50.826;6.896;2023-02-07T10:32:30;103342.34;;;4.92;100.00
72959;BME280;60008;50.826;6.896;2023-02-07T10:35:19;103348.81;;;3.89;100.00
72959;BME280;60008;50.826;6.896;2023-02-07T10:38:14;103341.19;;;4.31;100.00
72959;BME280;60008;50.826;6.896;2023-02-07T10:41:16;103338.59;;;4.54;100.00
72959;BME280;60008;50.826;6.896;2023-02-07T10:44:04;103346.25;;;4.81;100.00
72959;BME280;60008;50.826;6.896;2023-02-07T10:46:57;103334.63;;;5.30;94.89
72959;BME280;60008;50.826;6.896;2023-02-07T10:49:46;103340.56;;;5.14;96.80
72959;BME280;60008;50.826;6.896;2023-02-07T10:52:36;103343.25;;;3.98;100.00
72959;BME280;60008;50.826;6.896;2023-02-07T10:55:38;103351.59;;;4.78;100.00
72959;BME280;60008;50.826;6.896;2023-02-07T10:58:37;103342.78;;;4.11;99.57
72959;BME280;60008;50.826;6.896;2023-02-07T11:01:27;103346.97;;;4.85;100.00
72959;BME280;60008;50.826;6.896;2023-02-07T11:04:29;103349.94;;;4.06;100.00
72959;BME280;60008;50.826;6.896;2023-02-07T11:07:17;103353.22;;;6.47;98.70
72959;BME280;60008;50.826;6.896;2023-02-07T11:10:18;103357.59;;;4.37;100.00
72959;BME280;60008;50.826;6.896;2023-02-07T11:13:10;103362.66;;;3.94;100.00
72959;BME280;60008;50.826;6.896;2023-02-07T11:16:00;103361.22;;;4.79;97.06
72959;BME280;60008;50.826;6.896;2023-02-07T11:18:57;103351.66;;;6.99;89.33
72959;BME280;60008;50.826;6.896;2023-02-07T11:21:45;103346.91;;;6.88;83.92
72959;BME280;60008;50.826;6.896;2023-02-07T11:24:34;103359.44;;;4.80;90.77
72959;BME280;60008;50.826;6.896;2023-02-07T11:27:20;103339.19;;;6.28;91.37
72959;BME280;60008;50.826;6.896;2023-02-07T11:30:12;103343.72;;;6.63;84.06
72959;BME280;60008;50.826;6.896;2023-02-07T11:33:02;103338.72;;;5.99;83.37
72959;BME280;60008;50.826;6.896;2023-02-07T11:38:57;103332.84;;;6.88;72.50
72959;BME280;60008;50.826;6.896;2023-02-07T11:41:58;103336.91;;;4.05;91.19
72959;BME280;60008;50.826;6.896;2023-02-07T11:44:45;103337.56;;;4.35;94.70
72959;BME280;60008;50.826;6.896;2023-02-07T11:47:33;103324.09;;;5.92;86.29
72959;BME280;60008;50.826;6.896;2023-02-07T11:50:23;103320.13;;;6.41;85.11
72959;BME280;60008;50.826;6.896;2023-02-07T11:53:23;103318.09;;;7.02;70.63
72959;BME280;60008;50.826;6.896;2023-02-07T11:59:17;103309.03;;;5.76;90.99
72959;BME280;60008;50.826;6.896;2023-02-07T12:02:16;103301.59;;;7.50;74.97
72959;BME280;60008;50.826;6.896;2023-02-07T12:05:21;103307.44;;;5.72;84.85
72959;BME280;60008;50.826;6.896;2023-02-07T12:08:15;103310.59;;;4.06;93.65
72959;BME280;60008;50.826;6.896;2023-02-07T12:11:05;103316.41;;;3.67;96.36
72959;BME280;60008;50.826;6.896;2023-02-07T12:13:57;103315.81;;;3.58;99.19
72959;BME280;60008;50.826;6.896;2023-02-07T12:16:49;103320.44;;;3.75;99.05
72959;BME280;60008;50.826;6.896;2023-02-07T12:19:50;103314.59;;;3.69;100.00
72959;BME280;60008;50.826;6.896;2023-02-07T12:22:51;103313.44;;;3.76;100.00
72959;BME280;60008;50.826;6.896;2023-02-07T12:25:55;103315.75;;;3.60;100.00
72959;BME280;60008;50.826;6.896;2023-02-07T12:28:48;103303.50;;;3.85;100.00
72959;BME280;60008;50.826;6.896;2023-02-07T12:31:58;103308.16;;;4.02;96.58
72959;BME280;60008;50.826;6.896;2023-02-07T12:34:50;103312.97;;;3.89;93.23
72959;BME280;60008;50.826;6.896;2023-02-07T12:41:02;103312.03;;;4.15;91.59
72959;BME280;60008;50.826;6.896;2023-02-07T12:44:04;103313.88;;;4.13;92.37
72959;BME280;60008;50.826;6.896;2023-02-07T12:47:00;103314.56;;;3.93;89.46
72959;BME280;60008;50.826;6.896;2023-02-07T12:49:53;103313.03;;;4.11;91.38
72959;BME280;60008;50.826;6.896;2023-02-07T12:53:02;103312.97;;;3.89;87.08
72959;BME280;60008;50.826;6.896;2023-02-07T12:59:24;103295.66;;;4.08;90.85
72959;BME280;60008;50.826;6.896;2023-02-07T13:02:37;103287.75;;;4.10;90.94
72959;BME280;60008;50.826;6.896;2023-02-07T13:05:44;103287.16;;;4.25;92.49
72959;BME280;60008;50.826;6.896;2023-02-07T13:08:43;103286.75;;;4.12;86.21
72959;BME280;60008;50.826;6.896;2023-02-07T13:11:40;103286.84;;;4.33;85.79
72959;BME280;60008;50.826;6.896;2023-02-07T13:20:50;103285.00;;;4.58;84.51
72959;BME280;60008;50.826;6.896;2023-02-07T13:23:40;103281.09;;;4.68;82.67
72959;BME280;60008;50.826;6.896;2023-02-07T13:26:28;103278.31;;;4.51;81.89
72959;BME280;60008;50.826;6.896;2023-02-07T13:29:15;103283.84;;;4.87;81.87
72959;BME280;60008;50.826;6.896;2023-02-07T13:32:04;103278.38;;;4.71;79.22
72959;BME280;60008;50.826;6.896;2023-02-07T13:34:57;103258.38;;;5.30;83.30
72959;BME280;60008;50.826;6.896;2023-02-07T13:38:02;103256.94;;;5.23;78.62
72959;BME280;60008;50.826;6.896;2023-02-07T13:41:04;103258.63;;;5.04;76.20
72959;BME280;60008;50.826;6.896;2023-02-07T13:50:08;103264.63;;;4.86;74.46
72959;BME280;60008;50.826;6.896;2023-02-07T13:53:14;103262.72;;;4.46;73.22
72959;BME280;60008;50.826;6.896;2023-02-07T13:56:09;103270.97;;;4.59;74.50
72959;BME280;60008;50.826;6.896;2023-02-07T14:02:24;103260.09;;;4.68;75.31
72959;BME280;60008;50.826;6.896;2023-02-07T14:05:20;103263.88;;;4.61;76.39
72959;BME280;60008;50.826;6.896;2023-02-07T14:11:24;103271.91;;;4.79;72.33
72959;BME280;60008;50.826;6.896;2023-02-07T14:14:27;103263.88;;;4.61;70.27
72959;BME280;60008;50.826;6.896;2023-02-07T14:20:46;103257.72;;;5.05;72.72
72959;BME280;60008;50.826;6.896;2023-02-07T14:26:58;103254.66;;;4.94;69.81
72959;BME280;60008;50.826;6.896;2023-02-07T14:29:55;103270.97;;;5.02;71.73
72959;BME280;60008;50.826;6.896;2023-02-07T14:36:18;103264.69;;;5.26;70.93
72959;BME280;60008;50.826;6.896;2023-02-07T14:39:13;103256.28;;;5.38;69.98
72959;BME280;60008;50.826;6.896;2023-02-07T14:42:14;103254.91;;;4.88;66.54
72959;BME280;60008;50.826;6.896;2023-02-07T14:45:01;103254.59;;;4.96;65.39
72959;BME280;60008;50.826;6.896;2023-02-07T14:47:46;103251.91;;;4.97;65.69
72959;BME280;60008;50.826;6.896;2023-02-07T14:50:32;103250.00;;;5.01;69.67
72959;BME280;60008;50.826;6.896;2023-02-07T14:53:18;103250.38;;;5.13;67.94
72959;BME280;60008;50.826;6.896;2023-02-07T14:56:04;103246.81;;;4.93;64.65
72959;BME280;60008;50.826;6.896;2023-02-07T14:58:56;103248.59;;;4.92;65.05
72959;BME280;60008;50.826;6.896;2023-02-07T15:01:42;103248.03;;;5.06;64.60
72959;BME280;60008;50.826;6.896;2023-02-07T15:04:27;103241.25;;;5.00;64.30
72959;BME280;60008;50.826;6.896;2023-02-07T15:07:17;103239.59;;;4.98;64.53
72959;BME280;60008;50.826;6.896;2023-02-07T15:10:19;103247.56;;;4.96;63.44
72959;BME280;60008;50.826;6.896;2023-02-07T15:13:14;103241.94;;;5.05;66.60
72959;BME280;60008;50.826;6.896;2023-02-07T15:16:21;103240.91;;;5.29;66.19
72959;BME280;60008;50.826;6.896;2023-02-07T15:19:16;103240.19;;;5.26;66.16
72959;BME280;60008;50.826;6.896;2023-02-07T15:22:04;103241.00;;;5.06;64.07
72959;BME280;60008;50.826;6.896;2023-02-07T15:25:11;103239.72;;;4.95;61.27
72959;BME280;60008;50.826;6.896;2023-02-07T15:28:25;103242.63;;;4.89;63.03
72959;BME280;60008;50.826;6.896;2023-02-07T15:31:15;103251.06;;;4.97;67.23
72959;BME280;60008;50.826;6.896;2023-02-07T15:34:04;103247.25;;;5.04;67.33
72959;BME280;60008;50.826;6.896;2023-02-07T15:36:51;103251.53;;;4.85;63.99
72959;BME280;60008;50.826;6.896;2023-02-07T15:39:36;103250.09;;;4.77;64.36
72959;BME280;60008;50.826;6.896;2023-02-07T15:42:22;103251.19;;;4.72;66.42
72959;BME280;60008;50.826;6.896;2023-02-07T15:45:28;103252.97;;;4.71;65.33
72959;BME280;60008;50.826;6.896;2023-02-07T15:48:15;103254.81;;;4.69;66.48
72959;BME280;60008;50.826;6.896;2023-02-07T15:51:02;103242.44;;;4.71;64.37